Time;durP1;ratioP1;P1;durP2;ratioP2;P2;SDS_P1;SDS_P2;PMS_P1;PMS_P2;Temp;Humidity;BMP_temperature;BMP_pressure;BME280_temperature;BME280_humidity;BME280_pressure;Samples;Min_cycle;Max_cycle;Signal;HPM_P1;HPM_P2
2021/06/14 00:00:20;;;;;;;6.15;2.55;;;460.90;1459.20;;;;;;5113952;28;20027;-60
2021/06/14 00:02:47;;;;;;;7.80;2.30;;;460.90;1459.20;;;;;;5113919;28;20016;-60
2021/06/14 00:05:30;;;;;;;8.43;2.65;;;460.90;1459.20;;;;;;5113664;28;20112;-60
2021/06/14 00:07:57;;;;;;;7.28;2.53;;;460.90;1459.20;;;;;;5114224;28;20052;-62
2021/06/14 00:10:25;;;;;;;5.40;2.25;;;460.80;1459.20;;;;;;5114127;28;20046;-60
2021/06/14 00:12:52;;;;;;;5.43;2.08;;;460.90;1459.20;;;;;;5112588;28;20417;-60
2021/06/14 00:15:19;;;;;;;5.53;2.33;;;460.90;1484.80;;;;;;5114100;28;20034;-60
2021/06/14 00:17:45;;;;;;;7.18;2.55;;;460.90;1484.80;;;;;;5114094;28;20159;-67
2021/06/14 00:20:13;;;;;;;4.57;2.20;;;460.90;1484.80;;;;;;5113990;28;20054;-60
2021/06/14 00:22:40;;;;;;;5.60;2.60;;;460.80;1484.80;;;;;;5113792;28;20488;-60
2021/06/14 00:25:09;;;;;;;5.38;2.10;;;436.10;1484.80;;;;;;5113633;28;20487;-60
2021/06/14 00:27:35;;;;;;;10.35;2.63;;;436.10;1459.20;;;;;;5114019;28;20419;-60
2021/06/14 00:30:01;;;;;;;6.88;2.05;;;436.10;1484.80;;;;;;5113945;28;20028;-60
2021/06/14 00:32:27;;;;;;;6.03;2.47;;;436.10;1484.80;;;;;;5113630;28;20028;-60
2021/06/14 00:34:53;;;;;;;9.68;2.55;;;436.00;1484.80;;;;;;5113651;28;20035;-60
2021/06/14 00:37:19;;;;;;;8.25;2.83;;;436.10;1459.20;;;;;;5113860;28;20027;-60
2021/06/14 00:39:45;;;;;;;6.68;2.20;;;436.10;1459.20;;;;;;5113541;28;20020;-66
2021/06/14 00:42:11;;;;;;;9.38;2.72;;;436.10;1459.20;;;;;;5113811;28;20028;-60
2021/06/14 00:44:37;;;;;;;7.03;2.15;;;436.10;1459.20;;;;;;5113395;28;20104;-60
2021/06/14 00:47:04;;;;;;;8.55;2.72;;;436.00;1484.80;;;;;;5113526;28;20031;-60
2021/06/14 00:49:29;;;;;;;5.05;2.70;;;436.00;1484.80;;;;;;5113764;28;20379;-60
2021/06/14 00:51:55;;;;;;;4.57;2.40;;;435.90;1484.80;;;;;;5116776;28;20027;-67
2021/06/14 00:54:22;;;;;;;6.13;2.20;;;436.00;1484.80;;;;;;5117954;28;20050;-60
2021/06/14 00:56:48;;;;;;;5.72;2.47;;;436.10;1484.80;;;;;;5117556;28;20020;-60
2021/06/14 00:59:14;;;;;;;6.88;2.85;;;435.90;1484.80;;;;;;5117234;28;20028;-60
2021/06/14 01:01:41;;;;;;;6.88;2.40;;;435.90;1510.40;;;;;;5117238;28;20387;-66
2021/06/14 01:04:07;;;;;;;5.90;2.88;;;435.90;1484.80;;;;;;5116945;28;20445;-60
2021/06/14 01:06:33;;;;;;;8.27;2.55;;;436.00;1484.80;;;;;;5117431;28;20053;-60
2021/06/14 01:08:59;;;;;;;9.02;2.50;;;435.90;1484.80;;;;;;5117296;28;20024;-60
2021/06/14 01:11:35;;;;;;;7.80;2.75;;;435.90;1459.20;;;;;;5117048;28;20027;-60
2021/06/14 01:14:09;;;;;;;8.40;2.70;;;435.90;1484.80;;;;;;5117266;28;20032;-60
2021/06/14 01:16:35;;;;;;;7.32;2.70;;;435.80;1484.80;;;;;;5115722;28;20119;-60
2021/06/14 01:19:09;;;;;;;8.63;2.65;;;435.80;1484.80;;;;;;5116869;28;20059;-60
2021/06/14 01:21:40;;;;;;;4.47;2.15;;;;;;;;;;5116844;28;20020;-60
2021/06/14 01:24:15;;;;;;;5.38;2.15;;;;;;;;;;5117309;28;20535;-60
2021/06/14 01:26:44;;;;;;;8.00;2.50;;;;;;;;;;5117306;28;20022;-66
2021/06/14 01:29:11;;;;;;;8.65;2.65;;;;;;;;;;5116685;28;20055;-60
2021/06/14 01:31:38;;;;;;;7.32;2.42;;;;;;;;;;5116604;28;20474;-60
2021/06/14 01:34:05;;;;;;;5.03;2.13;;;;;;;;;;5116704;28;20024;-60
2021/06/14 01:36:32;;;;;;;7.72;2.00;;;;;;;;;;5116543;28;20028;-60
2021/06/14 01:38:59;;;;;;;4.00;2.05;;;;;;;;;;5116482;28;20023;-60
2021/06/14 01:41:27;;;;;;;7.25;2.35;;;;;;;;;;5116464;28;20028;-60
2021/06/14 01:43:54;;;;;;;3.80;2.05;;;;;;;;;;5116305;28;20063;-66
2021/06/14 01:46:22;;;;;;;6.28;2.15;;;;;;;;;;5116346;28;20020;-60
2021/06/14 01:48:49;;;;;;;6.20;2.28;;;;;;;;;;5116238;28;20024;-61
2021/06/14 01:51:17;;;;;;;8.02;2.47;;;;;;;;;;5116513;28;20024;-60
2021/06/14 01:54:02;;;;;;;8.23;2.45;;;;;;;;;;5116188;28;20027;-61
2021/06/14 01:56:51;;;;;;;6.45;2.30;;;;;;;;;;5116777;28;20062;-60
2021/06/14 01:59:25;;;;;;;5.45;2.45;;;;;;;;;;5116464;28;20090;-60
2021/06/14 02:01:53;;;;;;;7.35;2.15;;;;;;;;;;5115901;28;20038;-66
2021/06/14 02:04:19;;;;;;;7.68;2.22;;;;;;;;;;5115700;28;20500;-60
2021/06/14 02:06:47;;;;;;;6.30;2.85;;;;;;;;;;5115946;28;20046;-66
2021/06/14 02:09:21;;;;;;;4.03;2.22;;;;;;;;;;5115927;28;20163;-60
2021/06/14 02:11:51;;;;;;;6.60;2.30;;;;;;;;;;5116143;28;20031;-61
2021/06/14 02:14:18;;;;;;;8.30;2.22;;;;;;;;;;5116006;28;20106;-60
2021/06/14 02:16:46;;;;;;;3.80;1.90;;;;;;;;;;5115714;28;20456;-66
2021/06/14 02:19:12;;;;;;;7.18;2.40;;;;;;;;;;5115940;28;20364;-59
2021/06/14 02:21:40;;;;;;;5.47;2.08;;;;;;;;;;5115689;28;20485;-59
2021/06/14 02:24:06;;;;;;;3.90;2.00;;;;;;;;;;5115559;28;20096;-60
2021/06/14 02:26:33;;;;;;;6.25;2.60;;;;;;;;;;5115570;28;20051;-60
2021/06/14 02:28:59;;;;;;;5.10;2.08;;;;;;;;;;5115459;28;20039;-59
2021/06/14 02:31:25;;;;;;;5.70;2.35;;;;;;;;;;5115718;28;20023;-60
2021/06/14 02:33:51;;;;;;;5.18;2.20;;;;;;;;;;5115361;28;20055;-68
2021/06/14 02:36:19;;;;;;;5.55;2.53;;;435.40;1536.00;;;;;;5115647;28;20349;-60
2021/06/14 02:38:46;;;;;;;5.35;2.38;;;435.40;1740.80;;;;;;5115321;28;20027;-67
2021/06/14 02:41:13;;;;;;;9.52;2.58;;;410.40;1561.60;;;;;;5115534;28;20024;-60
2021/06/14 02:43:39;;;;;;;6.07;2.08;;;410.40;1561.60;;;;;;5115099;28;20028;-60
2021/06/14 02:46:06;;;;;;;4.13;2.47;;;410.40;1561.60;;;;;;5114137;28;20380;-60
2021/06/14 02:48:33;;;;;;;7.88;2.45;;;410.40;1561.60;;;;;;5115152;28;20531;-60
2021/06/14 02:51:01;;;;;;;9.70;2.58;;;410.40;1561.60;;;;;;5115399;28;20030;-60
2021/06/14 02:53:29;;;;;;;4.82;2.25;;;410.40;1561.60;;;;;;5115011;28;20023;-60
2021/06/14 02:56:09;;;;;;;5.20;2.20;;;410.30;1587.20;;;;;;5114908;28;20027;-67
2021/06/14 02:58:39;;;;;;;4.57;2.53;;;410.40;1587.20;;;;;;5115554;28;20103;-60
2021/06/14 03:01:08;;;;;;;6.65;2.33;;;410.40;1561.60;;;;;;5114885;28;20024;-60
2021/06/14 03:03:42;;;;;;;6.15;2.45;;;410.40;1587.20;;;;;;5114630;28;20086;-60
2021/06/14 03:06:14;;;;;;;6.32;2.72;;;410.30;1587.20;;;;;;5115058;28;20384;-66
2021/06/14 03:08:41;;;;;;;7.78;2.50;;;410.40;1587.20;;;;;;5114731;28;20019;-66
2021/06/14 03:11:07;;;;;;;6.82;2.42;;;410.40;1587.20;;;;;;5114675;28;20024;-60
2021/06/14 03:13:34;;;;;;;6.82;2.20;;;410.40;1587.20;;;;;;5114191;28;20025;-60
2021/06/14 03:16:02;;;;;;;4.10;2.03;;;410.30;1587.20;;;;;;5113339;28;20020;-60
2021/06/14 03:18:30;;;;;;;6.43;2.53;;;410.40;1587.20;;;;;;5113303;28;20434;-60
2021/06/14 03:20:59;;;;;;;5.68;2.92;;;410.30;1587.20;;;;;;5114823;28;20084;-60
2021/06/14 03:23:25;;;;;;;8.05;2.47;;;410.30;1587.20;;;;;;5114743;28;20019;-60
2021/06/14 03:25:51;;;;;;;8.32;2.35;;;410.20;1587.20;;;;;;5114472;28;20072;-67
2021/06/14 03:28:18;;;;;;;7.50;2.45;;;410.10;1612.80;;;;;;5114656;28;20077;-66
2021/06/14 03:30:45;;;;;;;9.35;2.78;;;410.20;1587.20;;;;;;5114639;28;20024;-67
2021/06/14 03:33:16;;;;;;;5.88;2.35;;;410.20;1587.20;;;;;;5114299;28;20027;-60
2021/06/14 03:35:43;;;;;;;5.15;2.40;;;410.30;1587.20;;;;;;5114935;28;20027;-67
2021/06/14 03:38:09;;;;;;;5.47;2.20;;;410.30;1587.20;;;;;;5114176;28;20027;-60
2021/06/14 03:40:35;;;;;;;6.40;2.45;;;410.30;1587.20;;;;;;5114218;28;20051;-60
2021/06/14 03:43:05;;;;;;;5.65;2.28;;;410.20;1587.20;;;;;;5112920;28;20047;-60
2021/06/14 03:45:32;;;;;;;6.82;2.55;;;410.30;1587.20;;;;;;5114091;28;20530;-60
2021/06/14 03:47:58;;;;;;;4.82;2.28;;;410.30;1587.20;;;;;;5114130;28;20024;-65
2021/06/14 03:50:25;;;;;;;6.40;2.28;;;410.30;1587.20;;;;;;5114124;28;20015;-67
2021/06/14 03:52:51;;;;;;;4.72;2.20;;;410.20;1587.20;;;;;;5114069;28;20077;-66
2021/06/14 03:55:18;;;;;;;7.40;2.28;;;410.20;1587.20;;;;;;5114044;28;20031;-60
2021/06/14 03:57:44;;;;;;;6.55;2.15;;;410.10;1587.20;;;;;;5114053;28;20027;-67
2021/06/14 04:00:12;;;;;;;5.45;2.70;;;410.20;1587.20;;;;;;5113972;28;20028;-60
2021/06/14 04:02:38;;;;;;;5.07;2.63;;;410.20;1587.20;;;;;;5114482;28;20027;-60
2021/06/14 04:05:06;;;;;;;6.40;2.45;;;410.10;1587.20;;;;;;5113671;28;20135;-60
2021/06/14 04:07:32;;;;;;;8.20;2.08;;;410.10;1587.20;;;;;;5114168;28;20027;-60
2021/06/14 04:09:59;;;;;;;4.53;1.85;;;410.10;1587.20;;;;;;5113819;28;20027;-60
2021/06/14 04:12:29;;;;;;;8.23;2.05;;;410.10;1587.20;;;;;;5113839;28;20028;-60
2021/06/14 04:14:56;;;;;;;4.50;2.10;;;410.10;1587.20;;;;;;5113776;28;20031;-60
2021/06/14 04:17:22;;;;;;;9.60;2.80;;;410.00;1612.80;;;;;;5113933;28;20028;-60
2021/06/14 04:19:48;;;;;;;10.88;2.47;;;410.10;1587.20;;;;;;5113802;28;20030;-67
2021/06/14 04:22:14;;;;;;;4.50;2.25;;;410.00;1612.80;;;;;;5113716;28;20039;-59
2021/06/14 04:24:41;;;;;;;5.55;2.58;;;410.00;1612.80;;;;;;5113652;28;20036;-66
2021/06/14 04:27:07;;;;;;;6.30;2.50;;;409.80;1638.40;;;;;;5117838;28;20031;-59
2021/06/14 04:29:33;;;;;;;8.15;2.80;;;409.70;1612.80;;;;;;5118142;28;20383;-59
2021/06/14 04:31:59;;;;;;;8.05;3.13;;;409.80;1638.40;;;;;;5118063;28;20428;-60
2021/06/14 04:34:26;;;;;;;6.57;2.28;;;409.80;1638.40;;;;;;5117754;28;20035;-60
2021/06/14 04:36:53;;;;;;;6.07;2.20;;;409.70;1638.40;;;;;;5117729;28;20028;-60
2021/06/14 04:39:19;;;;;;;6.65;2.20;;;409.60;1638.40;;;;;;5117658;28;20087;-60
2021/06/14 04:41:45;;;;;;;6.53;2.20;;;409.70;1638.40;;;;;;5117668;28;20034;-67
2021/06/14 04:44:11;;;;;;;4.20;2.28;;;409.80;1638.40;;;;;;5117798;28;20458;-60
2021/06/14 04:46:38;;;;;;;8.73;3.05;;;409.70;1612.80;;;;;;5117777;28;20030;-60
2021/06/14 04:49:04;;;;;;;7.55;2.45;;;409.90;1612.80;;;;;;5117446;28;20035;-60
2021/06/14 04:51:30;;;;;;;6.43;2.17;;;409.80;1664.00;;;;;;5117416;28;20027;-60
2021/06/14 04:53:57;;;;;;;7.00;2.50;;;409.90;1612.80;;;;;;5117318;28;20080;-62
2021/06/14 04:56:23;;;;;;;3.83;2.22;;;409.80;1638.40;;;;;;5117308;28;20031;-63
2021/06/14 04:58:49;;;;;;;9.00;2.72;;;409.80;1638.40;;;;;;5118100;28;20034;-66
2021/06/14 05:01:15;;;;;;;7.57;2.55;;;409.80;1638.40;;;;;;5117290;28;20032;-61
2021/06/14 05:03:41;;;;;;;7.53;2.50;;;409.80;1638.40;;;;;;5116870;28;20055;-66
2021/06/14 05:06:07;;;;;;;5.88;2.42;;;409.70;1664.00;;;;;;5117481;28;20417;-65
2021/06/14 05:08:34;;;;;;;7.18;2.50;;;409.70;1664.00;;;;;;5117135;28;20062;-62
2021/06/14 05:11:01;;;;;;;5.90;2.22;;;409.70;1664.00;;;;;;5117053;28;20035;-64
2021/06/14 05:13:26;;;;;;;6.50;2.13;;;409.80;1638.40;;;;;;5117063;28;20027;-65
2021/06/14 05:15:53;;;;;;;4.93;2.60;;;410.00;1638.40;;;;;;5116908;28;20034;-65
2021/06/14 05:18:18;;;;;;;8.55;2.95;;;410.00;1612.80;;;;;;5117184;28;20352;-63
2021/06/14 05:20:45;;;;;;;8.25;2.63;;;410.10;1612.80;;;;;;5116978;28;20140;-66
2021/06/14 05:23:11;;;;;;;5.63;2.13;;;410.30;1587.20;;;;;;5116832;28;20136;-65
2021/06/14 05:25:37;;;;;;;3.72;2.20;;;410.20;1612.80;;;;;;5117108;28;20046;-66
2021/06/14 05:28:06;;;;;;;7.63;2.05;;;410.30;1612.80;;;;;;5116993;28;20024;-65
2021/06/14 05:30:33;;;;;;;5.90;2.50;;;410.20;1612.80;;;;;;5116652;28;20494;-66
2021/06/14 05:32:59;;;;;;;6.40;2.20;;;410.30;1612.80;;;;;;5116636;28;20043;-66
2021/06/14 05:35:25;;;;;;;5.10;2.15;;;410.30;1612.80;;;;;;5116605;28;20031;-65
2021/06/14 05:37:51;;;;;;;10.73;2.50;;;410.30;1612.80;;;;;;5115995;28;20552;-66
2021/06/14 05:40:18;;;;;;;4.88;2.50;;;410.30;1587.20;;;;;;5116478;28;20095;-66
2021/06/14 05:42:44;;;;;;;6.93;2.78;;;410.40;1587.20;;;;;;5116445;28;20114;-66
2021/06/14 05:45:11;;;;;;;7.78;2.22;;;410.40;1587.20;;;;;;5116329;28;20034;-66
2021/06/14 05:47:37;;;;;;;10.23;2.20;;;410.40;1587.20;;;;;;5116392;28;20051;-66
2021/06/14 05:50:04;;;;;;;7.82;2.38;;;410.40;1587.20;;;;;;5116355;28;20472;-62
2021/06/14 05:52:31;;;;;;;5.65;2.15;;;435.20;1587.20;;;;;;5116275;28;20020;-66
2021/06/14 05:54:57;;;;;;;5.78;2.67;;;435.30;1587.20;;;;;;5116157;28;20085;-66
2021/06/14 05:57:23;;;;;;;6.72;2.47;;;435.50;1587.20;;;;;;5116493;28;20019;-65
2021/06/14 05:59:49;;;;;;;4.78;2.17;;;435.60;1587.20;;;;;;5116046;28;20117;-66
2021/06/14 06:02:15;;;;;;;7.88;2.53;;;435.50;1536.00;;;;;;5116387;27;20022;-67
2021/06/14 06:04:40;;;;;;;6.38;2.30;;;435.60;1536.00;;;;;;5115932;28;20442;-66
2021/06/14 06:07:06;;;;;;;6.95;2.08;;;435.60;1536.00;;;;;;5116181;28;20019;-64
2021/06/14 06:09:32;;;;;;;5.40;2.45;;;435.70;1536.00;;;;;;5116203;28;20380;-65
2021/06/14 06:11:58;;;;;;;6.35;2.30;;;435.80;1536.00;;;;;;5115778;28;20042;-66
2021/06/14 06:14:24;;;;;;;7.95;2.30;;;435.90;1536.00;;;;;;5115607;28;20028;-61
2021/06/14 06:16:50;;;;;;;6.55;2.33;;;435.90;1536.00;;;;;;5115269;28;20024;-66
2021/06/14 06:19:17;;;;;;;5.32;2.50;;;436.00;1536.00;;;;;;5115512;28;20031;-65
2021/06/14 06:21:43;;;;;;;7.07;2.45;;;436.00;1536.00;;;;;;5115208;28;20020;-66
2021/06/14 06:24:09;;;;;;;5.50;2.08;;;436.10;1510.40;;;;;;5115327;28;20371;-66
2021/06/14 06:26:35;;;;;;;6.75;2.28;;;460.80;1510.40;;;;;;5115077;28;20028;-65
2021/06/14 06:29:03;;;;;;;5.80;2.22;;;460.90;1536.00;;;;;;5113751;28;20016;-66
2021/06/14 06:31:30;;;;;;;5.95;2.10;;;461.00;1510.40;;;;;;5114702;28;20032;-66
2021/06/14 06:33:56;;;;;;;8.50;2.03;;;461.10;1510.40;;;;;;5115389;28;20116;-65
2021/06/14 06:36:22;;;;;;;8.82;2.20;;;461.30;1484.80;;;;;;5115304;28;20024;-66
2021/06/14 06:38:49;;;;;;;7.15;2.28;;;461.30;1484.80;;;;;;5115286;28;20019;-64
2021/06/14 06:41:15;;;;;;;7.20;2.00;;;461.30;1484.80;;;;;;5115251;28;20062;-65
2021/06/14 06:43:41;;;;;;;8.50;2.72;;;461.40;1484.80;;;;;;5115055;28;20031;-66
2021/06/14 06:46:09;;;;;;;22.52;3.15;;;461.50;1484.80;;;;;;5115476;28;20024;-64
2021/06/14 06:48:35;;;;;;;6.45;2.45;;;461.70;1459.20;;;;;;5114317;28;20018;-66
2021/06/14 06:51:01;;;;;;;7.03;2.75;;;486.40;1459.20;;;;;;5115327;28;20024;-65
2021/06/14 06:53:28;;;;;;;18.13;2.70;;;486.40;1459.20;;;;;;5115050;28;20028;-67
2021/06/14 06:55:55;;;;;;;6.57;2.17;;;486.50;1459.20;;;;;;5114899;28;20028;-64
2021/06/14 06:58:22;;;;;;;7.35;2.38;;;486.60;1433.60;;;;;;5114484;28;20019;-66
2021/06/14 07:00:49;;;;;;;7.30;2.55;;;486.80;1408.00;;;;;;5114274;28;20027;-66
2021/06/14 07:03:18;;;;;;;5.50;2.95;;;486.90;1433.60;;;;;;5114237;28;20107;-67
2021/06/14 07:05:46;;;;;;;5.60;1.98;;;486.90;1433.60;;;;;;5114336;28;20038;-64
2021/06/14 07:08:12;;;;;;;6.63;2.40;;;487.10;1408.00;;;;;;5111680;28;20417;-67
2021/06/14 07:10:38;;;;;;;5.13;2.20;;;487.10;1408.00;;;;;;5114162;28;20059;-65
2021/06/14 07:13:05;;;;;;;11.07;2.95;;;487.20;1433.60;;;;;;5114202;28;20495;-66
2021/06/14 07:15:32;;;;;;;7.75;2.30;;;487.20;1408.00;;;;;;5114629;28;20030;-66
2021/06/14 07:17:58;;;;;;;11.80;2.58;;;487.30;1408.00;;;;;;5114385;28;20039;-66
2021/06/14 07:20:24;;;;;;;7.75;2.20;;;512.00;1408.00;;;;;;5114647;28;20034;-67
2021/06/14 07:22:50;;;;;;;15.68;2.63;;;512.00;1382.40;;;;;;5114347;28;20102;-66
2021/06/14 07:25:16;;;;;;;6.55;2.05;;;512.00;1408.00;;;;;;5114512;28;20115;-64
2021/06/14 07:27:43;;;;;;;7.13;2.08;;;512.00;1408.00;;;;;;5114243;28;20476;-63
2021/06/14 07:30:14;;;;;;;7.80;2.20;;;512.10;1382.40;;;;;;5114196;28;20488;-64
2021/06/14 07:32:41;;;;;;;4.97;2.25;;;512.30;1382.40;;;;;;5114517;28;20024;-68
2021/06/14 07:35:08;;;;;;;4.45;2.50;;;512.40;1356.80;;;;;;5114115;28;20035;-68
2021/06/14 07:37:34;;;;;;;16.95;8.20;;;512.40;1331.20;;;;;;5114081;28;20103;-67
2021/06/14 07:40:00;;;;;;;8.05;3.13;;;512.30;1331.20;;;;;;5113826;28;20111;-81
2021/06/14 07:42:26;;;;;;;9.18;2.80;;;512.40;1331.20;;;;;;5113281;28;20027;-81
2021/06/14 07:44:52;;;;;;;5.55;2.20;;;512.40;1305.60;;;;;;5114317;28;20024;-84
2021/06/14 07:47:18;;;;;;;5.40;1.90;;;512.40;1305.60;;;;;;5114312;28;20521;-83
2021/06/14 07:49:44;;;;;;;5.07;1.98;;;512.40;1305.60;;;;;;5114135;28;20024;-83
2021/06/14 07:52:10;;;;;;;3.97;1.73;;;512.50;1280.00;;;;;;5109717;28;20544;-75
2021/06/14 07:54:36;;;;;;;5.90;2.17;;;512.30;1280.00;;;;;;5112234;28;20027;-70
2021/06/14 07:57:03;;;;;;;8.43;1.98;;;512.50;1305.60;;;;;;5112397;28;20373;-72
2021/06/14 07:59:29;;;;;;;8.50;2.17;;;512.70;1280.00;;;;;;5112699;28;20031;-60
2021/06/14 08:01:55;;;;;;;5.85;2.10;;;512.80;1254.40;;;;;;5112839;28;20028;-60
2021/06/14 08:04:21;;;;;;;3.33;1.80;;;;;;;;;;5112059;28;20044;-66
2021/06/14 08:06:47;;;;;;;5.32;1.90;;;;;;;;;;5112472;28;20020;-68
2021/06/14 08:09:16;;;;;;;4.40;1.90;;;;;;;;;;5112629;28;20540;-60
2021/06/14 08:11:44;;;;;;;7.47;2.40;;;538.10;1203.20;;;;;;5112414;28;20027;-65
2021/06/14 08:14:10;;;;;;;8.05;2.22;;;537.80;1228.80;;;;;;5112927;28;20065;-60
2021/06/14 08:16:40;;;;;;;4.75;2.10;;;537.80;1228.80;;;;;;5112502;28;20112;-61
2021/06/14 08:19:11;;;;;;;9.63;2.15;;;537.70;1228.80;;;;;;5112632;28;20316;-64
2021/06/14 08:22:02;;;;;;;9.82;2.08;;;537.60;1254.40;;;;;;5112713;28;20028;-60
2021/06/14 08:27:12;;;;;;;6.20;2.13;;;537.60;1228.80;;;;;;5112383;28;20023;-64
2021/06/14 08:29:38;;;;;;;7.60;1.90;;;537.60;1228.80;;;;;;5112989;28;20024;-60
2021/06/14 08:32:05;;;;;;;6.28;2.17;;;512.90;1228.80;;;;;;5112309;28;20084;-65
2021/06/14 08:34:31;;;;;;;4.70;1.73;;;512.90;1228.80;;;;;;5113339;28;20091;-61
2021/06/14 08:36:57;;;;;;;4.90;1.67;;;512.80;1203.20;;;;;;5113601;28;20523;-61
2021/06/14 08:39:22;;;;;;;4.72;1.73;;;512.80;1177.60;;;;;;5113543;28;20019;-58
2021/06/14 08:41:48;;;;;;;5.95;2.05;;;512.80;1203.20;;;;;;5113584;28;20028;-63
2021/06/14 08:44:15;;;;;;;6.03;2.00;;;512.90;1203.20;;;;;;5112589;28;20118;-66
2021/06/14 08:46:41;;;;;;;5.57;2.33;;;512.90;1228.80;;;;;;5107102;28;20026;-64
2021/06/14 08:49:07;;;;;;;5.07;1.90;;;537.60;1254.40;;;;;;5111571;28;20028;-60
2021/06/14 08:51:34;;;;;;;6.43;1.65;;;537.60;1254.40;;;;;;5111360;28;20497;-65
2021/06/14 08:54:02;;;;;;;5.03;2.00;;;537.60;1203.20;;;;;;5111659;28;20020;-60
2021/06/14 08:56:28;;;;;;;5.95;2.05;;;537.60;1203.20;;;;;;5111373;28;20063;-62
2021/06/14 08:58:55;;;;;;;8.60;2.00;;;537.60;1203.20;;;;;;5111559;28;20084;-62
2021/06/14 09:01:22;;;;;;;4.55;1.67;;;537.60;1203.20;;;;;;5108733;28;20407;-64
2021/06/14 09:03:48;;;;;;;4.63;1.80;;;512.90;1203.20;;;;;;5111593;28;20079;-67
2021/06/14 09:06:13;;;;;;;4.47;1.77;;;537.60;1203.20;;;;;;5112337;28;20062;-60
2021/06/14 09:08:40;;;;;;;5.65;2.00;;;537.60;1203.20;;;;;;5112171;28;20472;-60
2021/06/14 09:11:10;;;;;;;4.95;1.88;;;537.60;1203.20;;;;;;5111281;28;20103;-63
2021/06/14 09:13:37;;;;;;;4.88;2.00;;;537.70;1203.20;;;;;;5114076;28;20019;-60
2021/06/14 09:16:10;;;;;;;6.20;1.85;;;537.80;1203.20;;;;;;5114359;28;20076;-61
2021/06/14 09:18:38;;;;;;;4.15;1.77;;;537.90;1177.60;;;;;;5113778;28;20023;-69
2021/06/14 09:21:26;;;;;;;7.35;1.80;;;537.90;1177.60;;;;;;5114379;28;20020;-67
2021/06/14 09:23:58;;;;;;;5.15;1.67;;;538.00;1203.20;;;;;;5113134;28;20032;-66
2021/06/14 09:26:31;;;;;;;4.32;1.70;;;538.10;1177.60;;;;;;5112134;28;20031;-72
2021/06/14 09:29:04;;;;;;;3.35;1.60;;;538.00;1177.60;;;;;;5113771;28;20031;-62
2021/06/14 09:31:39;;;;;;;4.00;1.77;;;538.00;1177.60;;;;;;5114678;28;20031;-61
2021/06/14 09:34:05;;;;;;;4.60;1.70;;;538.10;1177.60;;;;;;5111744;28;20073;-62
2021/06/14 09:36:32;;;;;;;5.82;2.00;;;538.10;1177.60;;;;;;5113950;28;20061;-60
2021/06/14 09:39:16;;;;;;;5.18;1.88;;;538.10;1177.60;;;;;;5113644;28;20099;-63
2021/06/14 09:41:51;;;;;;;3.70;1.80;;;538.10;1203.20;;;;;;5112447;28;20031;-60
2021/06/14 09:44:47;;;;;;;4.53;1.33;;;538.10;1152.00;;;;;;5113134;28;20076;-63
2021/06/14 09:47:15;;;;;;;5.15;1.67;;;538.20;1177.60;;;;;;5094369;28;20044;-63
2021/06/14 09:49:54;;;;;;;8.75;1.50;;;538.30;1152.00;;;;;;5113495;28;20031;-67
2021/06/14 09:52:21;;;;;;;4.10;1.40;;;538.30;1177.60;;;;;;5113284;28;20703;-65
2021/06/14 09:54:48;;;;;;;6.13;2.40;;;538.40;1152.00;;;;;;5113385;28;20015;-62
2021/06/14 09:57:27;;;;;;;3.15;1.40;;;538.40;1126.40;;;;;;5113600;28;20020;-74
2021/06/14 09:59:53;;;;;;;4.22;1.75;;;538.40;1152.00;;;;;;5112381;28;20015;-74
2021/06/14 10:02:19;;;;;;;2.67;1.33;;;538.50;1126.40;;;;;;5112947;28;20024;-72
2021/06/14 10:04:54;;;;;;;8.25;1.85;;;563.20;1177.60;;;;;;5113352;28;20126;-72
2021/06/14 10:07:22;;;;;;;6.60;1.58;;;563.20;1126.40;;;;;;5114622;28;20107;-73
2021/06/14 10:09:53;;;;;;;15.55;2.38;;;563.20;1126.40;;;;;;5114214;28;20030;-72
2021/06/14 10:12:28;;;;;;;5.95;1.80;;;563.30;1126.40;;;;;;5112107;28;20151;-63
2021/06/14 10:14:57;;;;;;;8.02;2.00;;;563.40;1126.40;;;;;;5111735;28;20122;-61
2021/06/14 10:17:38;;;;;;;4.43;1.30;;;563.40;1126.40;;;;;;5114278;28;20475;-62
2021/06/14 10:20:25;;;;;;;5.15;2.28;;;563.40;1075.20;;;;;;5114158;28;20027;-62
2021/06/14 10:22:52;;;;;;;5.00;1.50;;;563.50;1126.40;;;;;;5112827;28;20500;-66
2021/06/14 10:25:20;;;;;;;6.75;1.90;;;563.50;1152.00;;;;;;5113483;28;20043;-60
2021/06/14 10:27:47;;;;;;;5.18;2.00;;;563.50;1126.40;;;;;;5114076;28;20028;-65
2021/06/14 10:30:15;;;;;;;6.45;1.55;;;563.60;1126.40;;;;;;5113590;28;20503;-67
2021/06/14 10:32:43;;;;;;;5.38;1.50;;;563.50;1126.40;;;;;;5114029;28;20023;-62
2021/06/14 10:35:11;;;;;;;3.58;1.33;;;563.50;1152.00;;;;;;5113490;28;20023;-64
2021/06/14 10:37:44;;;;;;;6.35;1.48;;;563.50;1100.80;;;;;;5093785;28;20571;-65
2021/06/14 10:40:13;;;;;;;8.43;1.63;;;563.50;1152.00;;;;;;5109348;28;20083;-65
2021/06/14 10:42:41;;;;;;;4.25;1.58;;;563.50;1126.40;;;;;;5093778;28;20111;-68
2021/06/14 10:45:09;;;;;;;4.35;1.67;;;563.50;1100.80;;;;;;5093108;28;20075;-67
2021/06/14 10:47:36;;;;;;;5.13;1.20;;;563.50;1100.80;;;;;;5093813;28;20051;-59
2021/06/14 10:50:03;;;;;;;4.80;1.35;;;563.60;1075.20;;;;;;5103502;28;20060;-60
2021/06/14 10:52:43;;;;;;;8.00;1.80;;;563.60;1075.20;;;;;;5113376;28;20023;-61
2021/06/14 10:55:12;;;;;;;4.43;1.50;;;563.70;1075.20;;;;;;5088313;28;20051;-59
2021/06/14 10:57:40;;;;;;;4.45;1.45;;;563.70;1024.00;;;;;;5113381;28;20380;-71
2021/06/14 11:00:33;;;;;;;7.25;1.70;;;563.80;1075.20;;;;;;5114264;28;20020;-65
2021/06/14 11:03:11;;;;;;;5.95;1.80;;;563.80;1049.60;;;;;;5113262;28;20020;-65
2021/06/14 11:05:46;;;;;;;3.90;1.58;;;563.90;1075.20;;;;;;5112626;28;20052;-61
2021/06/14 11:08:22;;;;;;;3.75;1.50;;;563.90;1024.00;;;;;;5112834;28;20016;-63
2021/06/14 11:11:00;;;;;;;6.78;1.60;;;564.00;1049.60;;;;;;5111298;28;20722;-63
2021/06/14 11:13:27;;;;;;;8.18;1.85;;;564.00;1075.20;;;;;;5109973;28;20027;-71
2021/06/14 11:15:55;;;;;;;2.88;1.30;;;564.10;1049.60;;;;;;5113401;28;20495;-63
2021/06/14 11:18:27;;;;;;;5.03;1.40;;;564.10;1049.60;;;;;;5113168;28;20016;-70
2021/06/14 11:21:15;;;;;;;6.65;1.45;;;588.80;998.40;;;;;;5113344;28;20038;-64
2021/06/14 11:23:43;;;;;;;5.57;1.52;;;589.00;1024.00;;;;;;5113057;28;20019;-65
2021/06/14 11:26:11;;;;;;;5.13;1.40;;;589.00;1024.00;;;;;;5112818;28;20034;-60
2021/06/14 11:28:45;;;;;;;8.13;1.75;;;589.00;972.80;;;;;;5113184;28;20479;-59
2021/06/14 11:31:16;;;;;;;6.35;1.60;;;589.20;998.40;;;;;;5112337;28;20023;-63
2021/06/14 11:33:44;;;;;;;5.90;1.70;;;589.40;1024.00;;;;;;5112329;28;20024;-60
2021/06/14 11:36:24;;;;;;;3.33;1.40;;;589.30;998.40;;;;;;5112142;28;20384;-60
2021/06/14 11:38:52;;;;;;;6.82;1.70;;;589.10;972.80;;;;;;5111781;28;20076;-61
2021/06/14 11:41:34;;;;;;;8.38;2.92;;;589.00;998.40;;;;;;5109880;28;20019;-64
2021/06/14 11:44:20;;;;;;;15.75;5.95;;;588.90;998.40;;;;;;5092233;28;20498;-67
2021/06/14 11:46:47;;;;;;;27.95;4.68;;;589.00;998.40;;;;;;5110762;28;20063;-64
2021/06/14 11:49:14;;;;;;;5.18;1.52;;;589.00;1024.00;;;;;;5112205;28;20020;-69
2021/06/14 11:51:39;;;;;;;6.80;1.60;;;589.00;998.40;;;;;;5111681;28;20016;-66
2021/06/14 11:54:08;;;;;;;13.98;1.90;;;588.90;998.40;;;;;;5112182;28;20502;-61
2021/06/14 11:56:38;;;;;;;5.00;1.48;;;589.00;1049.60;;;;;;5111119;28;20373;-61
2021/06/14 11:59:06;;;;;;;4.22;1.58;;;589.00;1024.00;;;;;;5091357;28;20020;-60
2021/06/14 12:01:35;;;;;;;15.60;2.47;;;588.90;1024.00;;;;;;5112371;28;20065;-72
2021/06/14 12:04:04;;;;;;;13.43;2.20;;;588.90;1049.60;;;;;;5112404;28;20075;-67
2021/06/14 12:06:45;;;;;;;5.15;1.20;;;588.90;1049.60;;;;;;5112791;28;20092;-75
2021/06/14 12:09:21;;;;;;;6.63;2.60;;;588.80;1024.00;;;;;;5112481;28;20027;-71
2021/06/14 12:12:04;;;;;;;6.38;3.78;;;588.80;1049.60;;;;;;5112877;28;20084;-70
2021/06/14 12:14:32;;;;;;;;;;;588.80;1049.60;;;;;;5112947;28;20069;-71
2021/06/14 12:17:01;;;;;;;6.22;1.85;;;588.80;1024.00;;;;;;5112646;28;20257;-74
2021/06/14 12:19:36;;;;;;;6.75;1.70;;;588.80;1049.60;;;;;;5112072;28;20387;-73
2021/06/14 12:22:06;;;;;;;5.90;1.90;;;588.80;1024.00;;;;;;5112687;28;20020;-61
2021/06/14 12:24:34;;;;;;;6.93;2.38;;;588.90;1049.60;;;;;;5112323;28;20039;-71
2021/06/14 12:27:05;;;;;;;5.63;1.77;;;589.00;1049.60;;;;;;5112356;28;20016;-72
2021/06/14 12:29:31;;;;;;;2.85;1.40;;;589.10;1049.60;;;;;;5112397;28;20026;-67
2021/06/14 12:32:23;;;;;;;2.97;1.30;;;589.20;1024.00;;;;;;5112488;28;20032;-73
2021/06/14 12:34:50;;;;;;;8.60;1.67;;;589.40;998.40;;;;;;5107674;28;20472;-71
2021/06/14 12:37:20;;;;;;;9.00;1.50;;;589.40;972.80;;;;;;5111956;28;20028;-74
2021/06/14 12:40:05;;;;;;;6.93;1.95;;;589.30;972.80;;;;;;5111778;28;20020;-60